Time;durP1;ratioP1;P1;durP2;ratioP2;P2;SDS_P1;SDS_P2;PMS_P1;PMS_P2;Temp;Humidity;BMP_temperature;BMP_pressure;BME280_temperature;BME280_humidity;BME280_pressure;Samples;Min_cycle;Max_cycle;Signal;HPM_P1;HPM_P2
2021/12/26 00:04:13;;;;;;;130.80;74.80;;;;;;;-13.51;77.90;99332.05;435745;1309;142998;-51
2021/12/26 00:14:20;;;;;;;121.90;71.10;;;;;;;-13.53;77.50;99319.71;435811;1309;141959;-53
2021/12/26 00:24:26;;;;;;;124.10;70.20;;;;;;;-13.52;77.58;99321.45;432512;1310;142997;-52
2021/12/26 00:34:32;;;;;;;100.30;54.10;;;;;;;-13.55;77.64;99322.36;435769;1310;142905;-53
2021/12/26 00:44:40;;;;;;;87.00;54.40;;;;;;;-13.60;77.35;99331.31;435205;1312;142804;-50
2021/12/26 00:54:45;;;;;;;78.20;44.30;;;;;;;-13.59;77.71;99342.27;435111;1311;144232;-50
2021/12/26 01:04:51;;;;;;;78.20;43.60;;;;;;;-13.52;77.68;99345.19;434219;1311;142382;-50
2021/12/26 01:15:03;;;;;;;62.00;36.90;;;;;;;-13.50;77.82;99332.27;434502;1310;142136;-52
2021/12/26 01:25:09;;;;;;;74.10;43.50;;;;;;;-13.63;78.00;99333.74;435353;1309;142557;-55
2021/12/26 01:35:16;;;;;;;65.70;39.90;;;;;;;-13.70;77.62;99326.66;435730;1309;142466;-50
2021/12/26 01:45:22;;;;;;;76.70;39.50;;;;;;;-13.84;76.75;99320.85;432132;1311;143194;-52
2021/12/26 01:55:39;;;;;;;72.20;37.60;;;;;;;-13.90;77.19;99314.27;435622;1311;142325;-52
2021/12/26 02:05:45;;;;;;;75.90;41.30;;;;;;;-13.98;77.13;99309.83;432028;1312;141912;-51
2021/12/26 02:15:52;;;;;;;68.80;37.20;;;;;;;-14.07;76.88;99308.22;431679;1312;142959;-52
2021/12/26 02:36:22;;;;;;;77.30;41.10;;;;;;;-14.36;76.49;99329.70;433529;1312;142145;-51
2021/12/26 02:46:29;;;;;;;71.00;42.60;;;;;;;-14.46;76.71;99326.83;433693;1312;143169;-51
2021/12/26 02:56:35;;;;;;;73.20;40.30;;;;;;;-14.61;76.77;99331.42;433464;1311;145108;-53
2021/12/26 03:06:48;;;;;;;59.80;36.90;;;;;;;-14.64;76.84;99341.41;434078;1311;143731;-55
2021/12/26 03:16:53;;;;;;;;;;;;;;;-14.73;76.78;99351.37;434875;1313;141980;-54
2021/12/26 03:27:03;;;;;;;63.90;37.40;;;;;;;-14.77;76.73;99353.77;435464;1312;128637;-56
2021/12/26 03:37:09;;;;;;;63.20;36.60;;;;;;;-14.94;76.36;99347.13;434885;1312;198365;-51
2021/12/26 03:47:15;;;;;;;69.80;37.00;;;;;;;-15.07;76.70;99350.73;434335;1312;142125;-49
2021/12/26 03:57:21;;;;;;;64.70;34.30;;;;;;;-15.03;77.00;99343.64;420737;1313;164739;-49
2021/12/26 04:07:27;;;;;;;61.80;34.40;;;;;;;-15.15;76.79;99363.04;433258;1308;144095;-50
2021/12/26 04:17:32;;;;;;;65.50;36.70;;;;;;;-15.24;76.89;99371.13;435179;1312;142431;-52
2021/12/26 04:27:38;;;;;;;66.90;37.50;;;;;;;-15.31;76.70;99367.02;433101;1310;145407;-50
2021/12/26 04:37:45;;;;;;;69.20;37.10;;;;;;;-15.28;77.19;99371.32;435331;1313;142135;-53
2021/12/26 04:47:51;;;;;;;73.30;41.60;;;;;;;-15.29;76.93;99373.13;434728;1312;142112;-50
2021/12/26 04:57:58;;;;;;;78.10;39.70;;;;;;;-15.17;77.43;99368.02;433812;1312;251955;-50
2021/12/26 05:08:05;;;;;;;63.70;38.10;;;;;;;-15.02;77.98;99365.02;435175;1312;142851;-50
2021/12/26 05:18:11;;;;;;;69.30;37.80;;;;;;;-14.96;77.93;99367.06;431296;1312;143309;-49
2021/12/26 05:28:17;;;;;;;65.90;39.40;;;;;;;-15.07;77.73;99373.77;433220;1311;144218;-50
2021/12/26 05:38:25;;;;;;;73.90;36.60;;;;;;;-15.19;77.60;99375.17;430742;1311;141851;-52
2021/12/26 05:48:31;;;;;;;86.90;46.90;;;;;;;-15.26;77.56;99389.02;433423;1309;143887;-53
2021/12/26 05:58:37;;;;;;;80.40;46.00;;;;;;;-15.29;77.37;99401.35;435190;1311;142689;-51
2021/12/26 06:08:43;;;;;;;88.10;51.90;;;;;;;-15.30;77.36;99406.20;433481;1311;142989;-50
2021/12/26 06:18:49;;;;;;;74.80;42.20;;;;;;;-15.25;77.34;99412.42;434693;1310;142609;-53
2021/12/26 06:28:55;;;;;;;89.90;51.80;;;;;;;-15.35;77.02;99410.86;435272;1311;143050;-54
2021/12/26 06:39:01;;;;;;;82.80;51.50;;;;;;;-15.48;77.01;99421.45;434852;1310;146450;-54
2021/12/26 06:49:07;;;;;;;72.60;45.80;;;;;;;-15.54;76.88;99432.67;434761;1311;142649;-53
2021/12/26 06:59:12;;;;;;;77.00;45.80;;;;;;;-15.54;76.84;99447.10;434284;1309;143614;-55
2021/12/26 07:09:19;;;;;;;80.60;43.40;;;;;;;-15.44;76.80;99447.65;434743;1308;142752;-50
2021/12/26 07:19:25;;;;;;;74.80;45.80;;;;;;;-15.22;76.82;99447.27;434629;1309;143176;-52
2021/12/26 07:29:30;;;;;;;81.00;46.50;;;;;;;-14.69;77.09;99456.05;433095;1309;142452;-50
2021/12/26 07:39:37;;;;;;;74.80;40.30;;;;;;;-13.91;77.20;99465.52;424419;1310;142081;-50
2021/12/26 07:49:42;;;;;;;73.80;45.00;;;;;;;-13.11;77.02;99476.38;435193;1308;142587;-54
2021/12/26 07:59:48;;;;;;;71.40;42.90;;;;;;;-11.93;77.18;99481.16;426407;1307;142632;-49
2021/12/26 08:09:54;;;;;;;65.10;42.60;;;;;;;-9.54;76.41;99475.50;434090;1311;143139;-51
2021/12/26 08:20:00;;;;;;;55.90;36.50;;;;;;;-6.99;74.72;99466.48;434361;1309;143251;-58
2021/12/26 08:30:08;;;;;;;59.30;39.10;;;;;;;-5.21;73.58;99457.91;434347;1311;142707;-55
2021/12/26 08:40:15;;;;;;;68.20;45.30;;;;;;;-3.40;72.45;99453.54;434455;1310;142833;-55
2021/12/26 08:50:22;;;;;;;70.20;47.00;;;;;;;-1.79;70.45;99459.30;434444;1311;141833;-53
2021/12/26 09:00:30;;;;;;;86.50;58.90;;;;;;;-0.07;68.68;99470.58;429787;1311;141607;-58
2021/12/26 09:10:36;;;;;;;88.90;65.30;;;;;;;-0.34;67.10;99472.52;433900;1311;142288;-55
2021/12/26 09:20:42;;;;;;;113.70;76.30;;;;;;;-0.38;65.20;99473.66;434900;1309;141397;-56
2021/12/26 09:30:48;;;;;;;97.40;65.60;;;;;;;0.11;64.66;99469.31;430015;1311;141975;-56
2021/12/26 09:40:53;;;;;;;107.70;63.10;;;;;;;-1.44;65.26;99478.80;431530;1308;143858;-53
2021/12/26 09:50:59;;;;;;;90.30;52.70;;;;;;;-2.82;66.66;99478.16;434420;1311;141555;-55
2021/12/26 10:01:05;;;;;;;55.10;34.40;;;;;;;-3.50;67.74;99487.02;431660;1310;142231;-51
2021/12/26 10:11:14;;;;;;;44.00;29.30;;;;;;;-4.26;67.75;99486.14;431198;1310;142759;-60
2021/12/26 10:21:42;;;;;;;58.50;34.20;;;;;;;-4.98;68.74;99491.37;432883;1310;141286;-52
2021/12/26 10:32:00;;;;;;;55.50;34.60;;;;;;;-5.52;69.04;99492.63;434906;1310;141809;-51
2021/12/26 10:42:09;;;;;;;45.20;28.60;;;;;;;-6.02;69.75;99500.61;432812;1309;142269;-55
2021/12/26 10:52:18;;;;;;;47.30;31.30;;;;;;;-6.51;70.39;99492.14;434347;1311;142702;-55
2021/12/26 11:02:26;;;;;;;53.90;32.00;;;;;;;-6.59;71.40;99487.66;434146;1311;143268;-59
2021/12/26 11:12:44;;;;;;;50.40;31.00;;;;;;;-6.53;71.66;99480.55;433607;1311;142894;-59
2021/12/26 11:22:50;;;;;;;56.70;33.20;;;;;;;-6.50;71.86;99474.94;434458;1309;142847;-60
2021/12/26 11:32:57;;;;;;;42.60;28.60;;;;;;;-6.46;72.15;99462.02;420575;1311;143561;-61
2021/12/26 11:43:44;;;;;;;52.10;29.90;;;;;;;-6.45;72.56;99456.90;434668;1310;142215;-59
2021/12/26 11:54:09;;;;;;;42.60;26.00;;;;;;;-6.40;72.85;99453.16;423122;1310;141701;-56
2021/12/26 12:04:18;;;;;;;24.60;15.80;;;;;;;-6.39;73.17;99452.15;429296;1310;142650;-61
2021/12/26 12:14:46;;;;;;;53.10;32.40;;;;;;;-6.44;72.93;99455.03;434891;1311;145279;-67
2021/12/26 12:24:52;;;;;;;33.40;20.70;;;;;;;-6.64;72.72;99458.70;426869;1310;142250;-63
2021/12/26 12:35:01;;;;;;;41.00;22.30;;;;;;;-6.88;73.33;99451.27;417966;1311;142237;-64
2021/12/26 12:45:09;;;;;;;46.80;29.60;;;;;;;-6.93;73.58;99442.06;424625;1310;144037;-63
2021/12/26 12:55:18;;;;;;;48.10;27.80;;;;;;;-7.04;73.75;99440.81;434642;1312;142526;-64
2021/12/26 13:05:27;;;;;;;41.60;23.70;;;;;;;-7.04;73.80;99436.91;421874;1312;258776;-63
2021/12/26 13:15:33;;;;;;;37.80;20.30;;;;;;;-7.15;73.89;99442.63;420917;1310;143028;-63
2021/12/26 13:25:41;;;;;;;35.20;19.80;;;;;;;-7.23;73.85;99448.04;419235;1310;141404;-62
2021/12/26 13:35:49;;;;;;;48.90;24.80;;;;;;;-7.29;73.88;99451.56;420115;1310;142375;-62
2021/12/26 13:45:59;;;;;;;50.50;26.10;;;;;;;-7.35;73.88;99456.64;433681;1309;142330;-63
2021/12/26 13:56:05;;;;;;;60.20;31.30;;;;;;;-7.47;73.73;99455.02;434952;1311;142272;-63
2021/12/26 14:06:11;;;;;;;51.20;29.90;;;;;;;-7.62;73.90;99459.48;431782;1310;142404;-63
2021/12/26 14:16:25;;;;;;;73.70;39.60;;;;;;;-7.81;74.00;99464.27;435118;1308;142145;-63
2021/12/26 14:26:39;;;;;;;68.00;39.90;;;;;;;-8.07;74.26;99471.52;435002;1310;141548;-63
2021/12/26 14:36:47;;;;;;;68.70;36.90;;;;;;;-8.34;74.40;99471.07;433084;1308;141830;-62
2021/12/26 14:46:55;;;;;;;69.10;35.70;;;;;;;-8.66;74.78;99469.55;434912;1311;142958;-63
2021/12/26 14:57:02;;;;;;;84.50;45.00;;;;;;;-9.02;74.88;99471.30;434354;1309;142561;-63
2021/12/26 15:07:11;;;;;;;69.20;38.60;;;;;;;-9.26;75.37;99485.05;433724;1311;141939;-62
2021/12/26 15:17:20;;;;;;;65.30;34.90;;;;;;;-9.51;75.36;99498.06;433752;1310;196380;-63
2021/12/26 15:27:31;;;;;;;83.20;44.50;;;;;;;-9.86;75.20;99504.95;431725;1311;142771;-63
2021/12/26 15:37:37;;;;;;;61.40;35.60;;;;;;;-10.18;75.15;99503.70;434973;1311;143722;-64
2021/12/26 15:47:43;;;;;;;61.30;36.70;;;;;;;-10.45;75.26;99506.94;426167;1310;142487;-65
2021/12/26 15:57:48;;;;;;;105.70;58.20;;;;;;;-10.66;75.43;99511.95;428792;1308;143580;-63
2021/12/26 16:07:55;;;;;;;96.20;48.30;;;;;;;-10.95;75.55;99523.34;434942;1310;142681;-62
2021/12/26 16:18:01;;;;;;;69.70;41.00;;;;;;;-11.20;75.29;99524.67;432785;1311;162626;-61
2021/12/26 16:28:07;;;;;;;87.90;48.80;;;;;;;-11.41;75.32;99530.42;435123;1310;144112;-61
2021/12/26 16:38:15;;;;;;;109.10;62.20;;;;;;;-11.60;75.44;99545.69;432956;1311;143367;-62
2021/12/26 16:48:22;;;;;;;89.30;53.60;;;;;;;-11.70;75.70;99547.12;434296;1311;143147;-61
2021/12/26 16:58:28;;;;;;;113.10;65.00;;;;;;;-11.88;75.79;99550.71;435042;1311;143666;-62
2021/12/26 17:08:34;;;;;;;98.80;55.90;;;;;;;-11.96;75.85;99560.46;434900;1311;142442;-61
2021/12/26 17:18:40;;;;;;;101.30;65.10;;;;;;;-12.10;76.00;99564.88;434221;1309;143828;-63
2021/12/26 17:28:46;;;;;;;107.20;64.90;;;;;;;-12.24;75.90;99567.70;434349;1313;143849;-67
2021/12/26 17:38:52;;;;;;;110.70;63.20;;;;;;;-12.33;75.61;99562.73;432397;1312;143083;-63
2021/12/26 17:48:58;;;;;;;112.40;69.50;;;;;;;-12.50;75.44;99563.60;433163;1311;145278;-64
2021/12/26 17:59:04;;;;;;;108.30;68.00;;;;;;;-12.62;75.66;99566.64;432899;1313;142897;-65
2021/12/26 18:09:11;;;;;;;128.20;74.70;;;;;;;-12.60;76.50;99568.38;434420;1310;184052;-64
2021/12/26 18:19:17;;;;;;;124.50;76.00;;;;;;;-12.70;76.04;99570.10;433348;1308;142737;-63
2021/12/26 18:29:23;;;;;;;144.70;85.00;;;;;;;-12.68;76.38;99576.73;431683;1311;142729;-63
2021/12/26 18:39:29;;;;;;;125.40;73.60;;;;;;;-12.64;77.02;99579.05;433265;1310;144830;-64
2021/12/26 18:49:35;;;;;;;145.60;83.50;;;;;;;-12.63;77.25;99573.20;435355;1311;143880;-65
2021/12/26 18:59:45;;;;;;;180.80;100.50;;;;;;;-12.71;76.85;99579.86;435299;1312;143622;-65
2021/12/26 19:09:51;;;;;;;131.30;76.20;;;;;;;-12.95;76.36;99582.02;434461;1311;143389;-64
2021/12/26 19:19:57;;;;;;;143.20;81.70;;;;;;;-12.89;77.11;99585.06;433540;1313;143095;-63
2021/12/26 19:30:03;;;;;;;130.10;77.60;;;;;;;-13.02;76.50;99584.67;433084;1311;143963;-63
2021/12/26 19:40:12;;;;;;;142.10;83.00;;;;;;;-13.22;76.09;99573.92;429707;1315;142673;-63
2021/12/26 19:50:18;;;;;;;140.30;79.60;;;;;;;-13.45;75.44;99570.21;435078;1311;143186;-62
2021/12/26 20:00:24;;;;;;;145.80;90.30;;;;;;;-13.67;75.15;99574.20;434254;1312;143040;-62
2021/12/26 20:10:30;;;;;;;218.70;121.90;;;;;;;-13.75;76.14;99571.27;434785;1310;143123;-65
2021/12/26 20:20:36;;;;;;;180.10;104.30;;;;;;;-13.78;76.19;99573.69;423911;1311;143377;-63
2021/12/26 20:30:42;;;;;;;208.80;125.30;;;;;;;-13.83;76.79;99581.95;432311;1313;143888;-63
2021/12/26 20:40:49;;;;;;;153.80;92.10;;;;;;;-13.81;77.52;99580.30;435213;1307;142819;-69
2021/12/26 20:50:55;;;;;;;152.10;92.50;;;;;;;-13.64;77.80;99576.66;435231;1313;143560;-68
2021/12/26 21:01:01;;;;;;;163.40;94.70;;;;;;;-13.64;77.71;99575.98;434990;1309;328972;-69
2021/12/26 21:11:09;;;;;;;120.90;72.90;;;;;;;-13.63;77.54;99573.81;435308;1308;155883;-69
2021/12/26 21:21:15;;;;;;;159.40;91.30;;;;;;;-13.53;77.88;99577.89;432252;1315;144061;-66
2021/12/26 21:31:21;;;;;;;158.20;92.40;;;;;;;-13.64;77.36;99573.98;434302;1313;143235;-65
2021/12/26 21:41:27;;;;;;;149.00;94.30;;;;;;;-13.84;77.28;99584.25;420067;1315;143259;-65
2021/12/26 21:51:34;;;;;;;167.60;97.20;;;;;;;-14.04;76.95;99593.14;432601;1315;143187;-66
2021/12/26 22:01:39;;;;;;;146.70;84.50;;;;;;;-14.27;76.73;99591.52;433966;1309;142691;-66
2021/12/26 22:11:45;;;;;;;115.10;66.50;;;;;;;-14.27;77.15;99574.53;432753;1312;145894;-66
2021/12/26 22:21:51;;;;;;;104.70;59.90;;;;;;;-14.00;78.19;99570.40;426591;1311;142605;-66
2021/12/26 22:31:57;;;;;;;117.70;68.90;;;;;;;-13.66;78.80;99570.38;427508;1310;144163;-65
2021/12/26 22:42:04;;;;;;;119.50;64.90;;;;;;;-13.36;78.78;99566.57;431017;1308;143900;-64
2021/12/26 22:52:14;;;;;;;152.40;86.70;;;;;;;-13.42;78.62;99564.39;433382;1311;142736;-65
2021/12/26 23:02:20;;;;;;;98.30;59.00;;;;;;;-13.71;78.00;99558.23;434939;1310;143073;-65
2021/12/26 23:12:26;;;;;;;139.40;78.70;;;;;;;-13.73;78.40;99551.45;422700;1311;142179;-65
2021/12/26 23:22:32;;;;;;;125.60;71.70;;;;;;;-13.87;78.14;99545.27;435003;1310;142988;-65
2021/12/26 23:32:38;;;;;;;87.10;52.10;;;;;;;-13.87;78.55;99539.38;434680;1312;143551;-64
2021/12/26 23:42:44;;;;;;;97.40;54.00;;;;;;;-13.69;78.88;99534.75;433808;1311;143256;-65
2021/12/26 23:52:50;;;;;;;90.90;53.40;;;;;;;-13.51;79.05;99536.16;433640;1310;142447;-65
